• Join FlightAware (Why Join?)
  • Login
  • US Flag 
11:12PM EDT


 

Airport Tracker/Info


-or-


 

Live Flight TrackerFlight Track Log ✈ GJS3706 ✈ 14-May-2013 ✈ KORD - KCVG

Flight Track Log - Related Links

Times and Time Zones

All times are in EDT time to prevent confusion due to time zone crossing. See the GJS3706 flight status page for this flight to view local times or setup timezone preferences in your user account.

Time Position Orientation Groundspeed Altitude Reporting Facility
EDT Latitude Longitude Course Direction KTS MPH feet Rate Location/Type
10:27AM 41.9167 -87.9000 180° South 203 234 3,400  Level Chicago TRACON
10:28AM 41.8500 -87.8833 169° South 262 302 5,500 2,640 Climbing Chicago TRACON
10:29AM 41.8064 -87.8750 172° South 256 295 7,700 3,060 Climbing Chicago Center
10:30AM 41.7317 -87.8564 169° South 272 313 10,900 3,060 Climbing Chicago Center
10:31AM 41.5662 -87.4239 153° Southeast  Level Estimated
10:31AM 41.6414 -87.7686 144° Southeast 337 388 14,100  Level Chicago Center
10:32AM 41.4829 -87.3281 180° South  Level Estimated
10:32AM 41.5589 -87.6953 146° Southeast 352 405 16,700  Level Chicago Center
10:33AM 41.4661 -87.6094 145° Southeast 396 456 17,900 1,740 Climbing Chicago Center
10:34AM 41.3542 -87.5550 160° South 429 494 20,400 1,500 Climbing Chicago Center
10:35AM 41.2458 -87.4639 148° Southeast 456 525 21,000 240 Climbing Chicago Center
10:36AM 41.1264 -87.3689 149° Southeast 492 566 21,000  Level Chicago Center
10:37AM 41.0056 -87.2756 150° Southeast 503 579 21,000  Level Chicago Center
10:38AM 40.8642 -87.1647 149° Southeast 497 572 21,000  Level Chicago Center
10:39AM 40.7458 -87.0722 149° Southeast 495 570 21,000  Level Chicago Center
10:40AM 40.6289 -86.9811 149° Southeast 491 565 21,000  Level Chicago Center
10:41AM 40.5072 -86.8936 151° Southeast 498 573 21,000  Level Chicago Center
10:42AM 40.3908 -86.8019 149° Southeast 494 568 21,000  Level Chicago Center
10:43AM 40.2589 -86.7031 150° Southeast 492 566 21,000  Level Chicago Center
10:44AM 40.1397 -86.6131 150° Southeast 495 570 21,000  Level Chicago Center
10:45AM 40.0867 -86.5728 150° Southeast 492 566 21,000  Level Indianapolis Center
10:46AM 39.9681 -86.4825 150° Southeast 491 565 21,000 -60 Level Indianapolis Center
10:47AM 39.8497 -86.3925 150° Southeast 490 564 20,900 -480 Descending Indianapolis Center
10:47AM 39.8167 -86.3333 126° Southeast 481 554 20,400 -1,140 Descending Indianapolis TRACON
10:48AM 39.7500 -86.1833 120° Southeast 472 543 19,400 -1,200 Descending Indianapolis TRACON
10:49AM 39.7236 -86.0950 111° Southeast 474 545 18,400 -2,280 Descending Indianapolis Center
10:50AM 39.6622 -85.9089 113° Southeast 467 537 15,400 -2,580 Descending Indianapolis Center
10:51AM 39.6139 -85.7661 114° Southeast 443 510 13,100 -1,860 Descending Indianapolis Center
10:52AM 39.5717 -85.6381 113° Southeast 402 463 11,600 -1,080 Descending Indianapolis Center
10:53AM 39.5333 -85.5233 113° Southeast 375 432 10,900 -360 Descending Indianapolis Center
10:54AM 39.4789 -85.4139 123° Southeast 363 418 10,900  Level Indianapolis Center
10:55AM 39.4233 -85.3092 124° Southeast 351 404 11,000 -660 Climbing Indianapolis Center
10:56AM 39.3961 -85.1797 105° East 315 362 9,600 -1,500 Descending Indianapolis Center
10:57AM 39.3744 -85.0739 105° East 308 354 7,900 -1,680 Descending Indianapolis Center
10:58AM 39.3533 -84.9700 105° East 303 349 6,200 -1,440 Descending Indianapolis Center
10:59AM 39.3161 -84.8856 120° Southeast 285 328 5,000 -840 Descending Indianapolis Center
10:59AM 39.3000 -84.8500 120° Southeast 254 292 5,000 -600 Level Cincinnati TRACON
11:00AM 39.2500 -84.7833 134° Southeast 250 288 4,200 -1,020 Descending Cincinnati TRACON
11:01AM 39.2000 -84.7000 128° Southeast 251 289 3,000 -780 Descending Cincinnati TRACON
11:02AM 39.1500 -84.6667 153° Southeast 194 223 2,700 -300 Descending Cincinnati TRACON